Home > Products > Valid Products > MTR

000
SAUS44 KMRX 181202 COR
MTROQT
METAR KOQT 181153Z AUTO 00000KT 10SM -RA BKN090 OVC100 02/M02 A3024
RMK AO2 UPB27E30RAB30 SLP252 P0000 60000 T00171017 10017 21011 53006





000
SAUS44 KMRX 181202 COR
MTROQT
METAR KOQT 181153Z AUTO 00000KT 10SM -RA BKN090 OVC100 02/M02 A3024
RMK AO2 UPB27E30RAB30 SLP252 P0000 60000 T00171017 10017 21011 53006





000
SAUS44 KMRX 180717 COR
MTRGDP
METAR KGDP 180651Z AUTO 25028G35KT 10SM CLR 07/M01 A3010 RMK AO2 PK
WND 27037/0621 SLP164 T00671006 401330028





000
SAUS44 KMRX 180017 COR
MTRGDP
METAR KGDP 172351Z AUTO 24023G30KT 10SM FEW065 09/M02 A3005 RMK AO2
PK WND 25045/2305 SLP152 T00891022 10133 20089 53017





000
SAUS44 KMRX 171918 COR
MTRGDP
METAR KGDP 171851Z AUTO 25041G47KT 10SM BKN046 BKN055 11/M02 A2999
RMK AO2 PK WND 25047/1849 PRESFR SLP132 T01061017





000
SAUS44 KMRX 171817 COR
MTRGDP
METAR KGDP 171751Z AUTO 25029G37KT 10SM FEW055 12/00 A3006 RMK AO2
PK WND 24039/1729 SLP153 T01170000 10117 20028 58002





000
SAUS44 KMRX 170017 COR
MTRGDP
METAR KGDP 162351Z AUTO 06027KT 10SM CLR 04/M03 A3014 RMK AO2 PK WND
06029/2347 SLP202 T00391033 10072 20039 52001





000
SAUS44 KMRX 161217 COR
MTRGDP
METAR KGDP 161151Z AUTO 05030KT 10SM CLR 02/M07 A3019 RMK AO2 PK WND
05033/1150 SLP210 T00171072 10078 20017 51000





000
SAUS44 KMRX 160815
MTROQT
SPECI KOQT 160814Z AUTO 00000KT 1 3/4SM -RA BR FEW027 BKN033 OVC048
07/07 A2993 RMK AO2 P0002 T00720067





000
SAUS44 KMRX 160005 COR
MTROQT
METAR KOQT 152353Z AUTO 18003KT 10SM BKN060 OVC090 08/03 A3003 RMK
AO2 RAB25E50 SLP180 P0000 60000 T00830028 10117 20078 56001





000
SAUS44 KMRX 160004 COR
MTROQT
METAR KOQT 152353Z AUTO 18003KT 10SM BKN060 OVC090 08/03 A3003 RMK
AO2 RAB25E50 SLP180 P0000 60000 T00830028 10117 20078 56001





000
SAUS44 KMRX 160003 COR
MTROQT
METAR KOQT 152353Z AUTO 18003KT 10SM BKN060 OVC090 08/03 A3003 RMK
AO2 RAB25E50 SLP180 P0000 60000 T00830028 10117 20078 56001





    US Dept of Commerce
    National Oceanic and Atmospheric Administration
    National Weather Service
    1325 East West Highway
    Silver Spring, MD 20910
    Page Author: NWS Internet Services Team
Disclaimer
Information Quality
Credits
Glossary
Privacy Policy
Freedom of Information Act (FOIA)
About Us
Career Opportunities